Flight Track Log - Related Links

Times and Time Zones

All times are in EDT time to prevent confusion due to time zone crossing. See the ASH3751 flight status page for this flight to view local times or setup timezone preferences in your user account.

Time Position Orientation Groundspeed Altitude Reporting Facility
EDT Latitude Longitude Course Direction KTS MPH feet Rate Location/Type
Sun 08:51:18 AM 38.9167 -77.4500 270° West 170 196 1,400  Level Potomac TRACON
Sun 08:52:18 AM 38.8833 -77.5000 229° Southwest 228 262 3,100 1,934 Climbing Potomac TRACON
Sun 08:53:19 AM 38.8167 -77.5500 210° Southwest 261 300 5,300 2,331 Climbing Potomac TRACON
Sun 08:54:00 AM 38.8006 -77.9913 287° West  Level FlightAware Approximate
Sun 08:54:19 AM 38.7833 -77.6333 243° Southwest 284 327 7,800  Level Potomac TRACON
Sun 08:54:50 AM 38.7806 -77.6822 266° West 290 334 8,600 1,780 Climbing Washington Center
Sun 08:55:00 AM 38.8359 -78.1436 288° West  Level FlightAware Approximate
Sun 08:55:50 AM 38.7975 -77.7892 282° West 305 351 10,500  Level Washington Center
Sun 08:56:00 AM 38.8500 -78.2999 270° West  Level FlightAware Approximate
Sun 08:56:51 AM 38.8142 -77.9042 281° West 334 384 12,500  Level Washington Center
Sun 08:57:52 AM 38.8306 -78.0247 280° West 340 391 14,500 1,934 Climbing Washington Center
Sun 08:58:52 AM 38.8467 -78.1506 279° West 346 398 16,400 1,780 Climbing Washington Center
Sun 08:59:50 AM 38.8522 -78.2786 273° West 357 411 18,000 1,373 Climbing Washington Center
Sun 09:00:50 AM 38.8511 -78.4119 269° West 368 423 19,100 1,289 Climbing Washington Center
Sun 09:01:51 AM 38.8519 -78.5478 270° West 374 430 20,600 1,328 Climbing Washington Center
Sun 09:02:52 AM 38.8486 -78.6864 268° West 381 438 21,800 1,261 Climbing Washington Center
Sun 09:03:50 AM 38.8469 -78.8275 269° West 388 447 23,100 1,220 Climbing Washington Center
Sun 09:04:50 AM 38.8450 -78.9714 269° West 402 463 24,200 1,041 Climbing Washington Center
Sun 09:05:51 AM 38.8450 -79.1206 270° West 412 474 25,200 934 Climbing Washington Center
Sun 09:06:52 AM 38.8300 -79.2692 263° West 417 480 26,100 807 Climbing Washington Center
Sun 09:07:50 AM 38.8025 -79.4197 257° West 427 491 26,800 908 Climbing Washington Center
Sun 09:08:51 AM 38.7719 -79.5886 257° West 442 509 27,900 1,033 Climbing Washington Center
Sun 09:09:52 AM 38.7436 -79.7442 257° West 448 516 28,900 966 Climbing Washington Center
Sun 09:10:49 AM 38.7181 -79.8836 257° West 448 516 29,800 960 Climbing Washington Center
Sun 09:11:32 AM 38.6944 -79.9933 255° West 447 514 30,500 865 Climbing Indianapolis Center
Sun 09:12:33 AM 38.6653 -80.1481 256° West 447 514 31,300 780 Climbing Indianapolis Center
Sun 09:13:35 AM 38.6356 -80.3053 256° West 452 520 32,100 774 Climbing Indianapolis Center
Sun 09:14:37 AM 38.6056 -80.4625 256° West 454 522 32,900 439 Climbing Indianapolis Center
Sun 09:15:38 AM 38.5761 -80.6217 257° West 460 529 33,000 49 Climbing Indianapolis Center
Sun 09:16:40 AM 38.5447 -80.7864 256° West 474 545 33,000  Level Indianapolis Center
Sun 09:17:42 AM 38.5078 -80.9781 256° West 464 534 33,000  Level Indianapolis Center
Sun 09:18:43 AM 38.4769 -81.1367 256° West 459 528 33,000 341 Level Indianapolis Center
Sun 09:19:45 AM 38.4439 -81.2964 255° West 461 531 33,700 484 Climbing Indianapolis Center
Sun 09:20:47 AM 38.4128 -81.4564 256° West 458 527 34,000 145 Climbing Indianapolis Center
Sun 09:21:49 AM 38.3811 -81.6142 256° West 455 524 34,000 -49 Level Indianapolis Center
Sun 09:22:50 AM 38.3494 -81.7706 256° West 452 520 33,900  Descending Indianapolis Center
Sun 09:23:52 AM 38.3083 -81.9203 251° West 449 517 34,000 48 Climbing Indianapolis Center
Sun 09:24:54 AM 38.2644 -82.0703 250° West 450 518 34,000  Level Indianapolis Center
Sun 09:25:56 AM 38.2197 -82.2311 251° West 475 547 34,000  Level Indianapolis Center
Sun 09:26:57 AM 38.1744 -82.3917 250° West 482 555 34,000  Level Indianapolis Center
Sun 09:27:59 AM 38.1233 -82.5694 250° West 480 552 34,000  Level Indianapolis Center
Sun 09:29:01 AM 38.0778 -82.7269 250° West 477 549 34,000  Level Indianapolis Center
Sun 09:30:03 AM 38.0325 -82.8836 250° West 475 547 34,000  Level Indianapolis Center
Sun 09:31:05 AM 37.9783 -83.0675 250° West 477 549 34,000  Level Indianapolis Center
Sun 09:32:06 AM 37.9319 -83.2253 250° West 480 552 34,000  Level Indianapolis Center
Sun 09:33:08 AM 37.8853 -83.3822 249° West 479 551 34,000  Level Indianapolis Center
Sun 09:34:10 AM 37.8369 -83.5386 249° West 477 549 34,000  Level Indianapolis Center
Sun 09:35:12 AM 37.7925 -83.6986 251° West 480 552 34,000  Level Indianapolis Center
Sun 09:36:14 AM 37.7450 -83.8556 249° West 480 552 34,000  Level Indianapolis Center
Sun 09:37:15 AM 37.6892 -84.0375 249° West 476 548 34,000  Level Indianapolis Center
Sun 09:38:17 AM 37.6419 -84.1947 249° West 478 550 34,000  Level Indianapolis Center
Sun 09:39:19 AM 37.5942 -84.3472 248° West 472 543 34,000  Level Indianapolis Center
Sun 09:40:21 AM 37.5494 -84.4992 250° West 465 535 34,000  Level Indianapolis Center
Sun 09:41:23 AM 37.5014 -84.6506 248° West 465 535 34,000  Level Indianapolis Center
Sun 09:42:25 AM 37.4464 -84.8269 249° West 462 532 34,000  Level Indianapolis Center
Sun 09:43:27 AM 37.4003 -84.9769 249° West 459 528 34,000  Level Indianapolis Center
Sun 09:44:28 AM 37.3525 -85.1242 248° West 455 524 34,000  Level Indianapolis Center
Sun 09:45:30 AM 37.3061 -85.2719 249° West 454 522 34,000  Level Indianapolis Center
Sun 09:46:32 AM 37.2586 -85.4181 248° West 453 521 34,000  Level Indianapolis Center
Sun 09:47:34 AM 37.2103 -85.5742 249° West 455 524 34,000  Level Indianapolis Center
Sun 09:48:36 AM 37.1622 -85.7222 248° West 455 524 34,000  Level Indianapolis Center
Sun 09:49:38 AM 37.1158 -85.8706 249° West 454 522 34,000  Level Indianapolis Center
Sun 09:50:39 AM 37.0675 -86.0175 248° West 454 522 34,000  Level Indianapolis Center
Sun 09:51:41 AM 37.0200 -86.1647 248° West 453 521 34,000  Level Indianapolis Center
Sun 09:52:43 AM 36.9622 -86.3375 247° West 457 526 34,000  Level Indianapolis Center
Sun 09:53:45 AM 36.9078 -86.4825 245° Southwest 459 528 34,000  Level Indianapolis Center
Sun 09:54:47 AM 36.8381 -86.6164 237° Southwest 458 527 34,000  Level Indianapolis Center
Sun 09:55:49 AM 36.7689 -86.7519 238° Southwest 461 531 34,000  Level Indianapolis Center
Sun 09:56:51 AM 36.6997 -86.8864 237° Southwest 460 529 34,000  Level Indianapolis Center
Sun 09:57:55 AM 36.6189 -87.0478 238° Southwest 469 540 34,000  Level Memphis Center
Sun 09:58:55 AM 36.5494 -87.1825 237° Southwest 469 540 34,000  Level Memphis Center
Sun 09:59:55 AM 36.4778 -87.3169 236° Southwest 474 545 34,000  Level Memphis Center
Sun 10:00:55 AM 36.4058 -87.4511 236° Southwest 474 545 34,000  Level Memphis Center
Sun 10:01:55 AM 36.3358 -87.5822 236° Southwest 474 545 34,000  Level Memphis Center
Sun 10:02:55 AM 36.2639 -87.7161 236° Southwest 474 545 34,000  Level Memphis Center
Sun 10:03:55 AM 36.1958 -87.8519 238° Southwest 474 545 34,000  Level Memphis Center
Sun 10:04:55 AM 36.1272 -87.9722 235° Southwest 474 545 34,000  Level Memphis Center
Sun 10:05:55 AM 36.0589 -88.1053 238° Southwest 470 541 34,000  Level Memphis Center
Sun 10:06:55 AM 35.9839 -88.2331 234° Southwest 470 541 34,000  Level Memphis Center
Sun 10:07:55 AM 35.9111 -88.3656 236° Southwest 470 541 34,000  Level Memphis Center
Sun 10:08:00 AM 35.9109 -88.3666 236° Southwest  Level FlightAware Approximate
Sun 10:08:55 AM 35.8403 -88.4981 237° Southwest 470 541 34,000  Level Memphis Center
Sun 10:09:55 AM 35.7669 -88.6300 236° Southwest 475 547 34,000  Level Memphis Center
Sun 10:10:55 AM 35.6936 -88.7619 236° Southwest 475 547 34,000  Level Memphis Center
Sun 10:11:55 AM 35.6244 -88.8961 238° Southwest 469 540 34,000  Level Memphis Center
Sun 10:12:55 AM 35.5531 -89.0250 236° Southwest 469 540 34,000  Level Memphis Center
Sun 10:13:55 AM 35.4814 -89.1561 236° Southwest 469 540 34,000  Level Memphis Center
Sun 10:14:55 AM 35.4075 -89.2872 235° Southwest 469 540 34,000  Level Memphis Center
Sun 10:15:55 AM 35.3356 -89.4358 239° Southwest 469 540 34,000  Level Memphis Center
Sun 10:16:55 AM 35.2969 -89.5861 253° West 463 533 34,000  Level Memphis Center
Sun 10:17:55 AM 35.2539 -89.7367 251° West 469 540 34,000  Level Memphis Center
Sun 10:18:55 AM 35.2131 -89.8869 252° West 469 540 34,000  Level Memphis Center
Sun 10:19:55 AM 35.1717 -90.0369 251° West 469 540 34,000  Level Memphis Center
Sun 10:20:55 AM 35.1303 -90.1869 251° West 469 540 34,000  Level Memphis Center
Sun 10:21:55 AM 35.0886 -90.3342 251° West 469 540 34,000  Level Memphis Center
Sun 10:22:55 AM 35.0072 -90.4586 231° Southwest 464 534 34,000  Level Memphis Center
Sun 10:23:55 AM 34.9236 -90.5722 228° Southwest 464 534 34,000  Level Memphis Center
Sun 10:24:55 AM 34.8358 -90.6936 229° Southwest 470 541 34,000  Level Memphis Center
Sun 10:25:55 AM 34.7500 -90.8069 227° Southwest 470 541 34,000  Level Memphis Center
Sun 10:26:55 AM 34.6639 -90.9253 229° Southwest 470 541 34,000  Level Memphis Center
Sun 10:27:55 AM 34.5758 -91.0406 227° Southwest 464 534 34,000  Level Memphis Center
Sun 10:28:55 AM 34.4875 -91.1583 228° Southwest 469 540 34,000  Level Memphis Center
Sun 10:29:55 AM 34.4011 -91.2733 228° Southwest 469 540 34,000  Level Memphis Center
Sun 10:30:55 AM 34.3125 -91.3881 227° Southwest 463 533 34,000  Level Memphis Center
Sun 10:31:55 AM 34.2322 -91.4928 227° Southwest 463 533 34,000  Level Memphis Center
Sun 10:32:55 AM 34.1414 -91.6044 226° Southwest 468 539 34,000  Level Memphis Center
Sun 10:33:55 AM 34.0503 -91.7336 230° Southwest 468 539 34,000  Level Memphis Center
Sun 10:34:55 AM 33.9614 -91.8472 227° Southwest 462 532 34,000  Level Memphis Center
Sun 10:37:05 AM 33.7806 -92.0808 227° Southwest 477 549 34,000  Level Fort Worth Center
Sun 10:38:06 AM 33.6914 -92.1936 226° Southwest 471 542 34,000  Level Fort Worth Center
Sun 10:39:05 AM 33.6042 -92.3061 227° Southwest 471 542 34,000  Level Fort Worth Center
Sun 10:40:05 AM 33.5128 -92.4186 226° Southwest 471 542 34,000  Level Fort Worth Center
Sun 10:41:05 AM 33.4275 -92.5328 228° Southwest 471 542 34,000  Level Fort Worth Center
Sun 10:42:05 AM 33.3378 -92.6472 227° Southwest 471 542 34,000  Level Fort Worth Center
Sun 10:43:05 AM 33.2417 -92.7517 222° Southwest 471 542 34,000  Level Fort Worth Center
Sun 10:44:06 AM 33.1431 -92.8536 221° Southwest 471 542 34,000  Level Fort Worth Center
Sun 10:45:06 AM 33.0422 -92.9506 219° Southwest 476 548 34,000  Level Fort Worth Center
Sun 10:46:05 AM 32.9411 -93.0447 218° Southwest 471 542 34,000  Level Fort Worth Center
Sun 10:47:06 AM 32.8403 -93.1411 219° Southwest 471 542 34,000  Level Fort Worth Center
Sun 10:48:05 AM 32.7411 -93.2372 219° Southwest 471 542 34,000  Level Fort Worth Center
Sun 10:49:05 AM 32.6378 -93.3356 219° Southwest 471 542 34,000  Level Fort Worth Center
Sun 10:50:06 AM 32.5386 -93.4314 219° Southwest 471 542 34,000  Level Fort Worth Center
Sun 10:51:05 AM 32.4372 -93.5244 218° Southwest 471 542 34,000  Level Fort Worth Center
Sun 10:52:06 AM 32.3297 -93.6272 219° Southwest 471 542 34,000  Level Fort Worth Center
Sun 10:53:05 AM 32.2303 -93.7197 218° Southwest 471 542 34,000  Level Fort Worth Center
Sun 10:54:05 AM 32.1431 -93.8092 221° Southwest 466 536 34,000  Level Fort Worth Center
Sun 10:54:42 AM 32.0814 -93.8661 218° Southwest 457 526 34,000  Level Houston Center
Sun 10:55:44 AM 31.9842 -93.9539 217° Southwest 458 527 34,000  Level Houston Center
Sun 10:56:46 AM 31.8650 -94.0656 219° Southwest 457 526 34,000  Level Houston Center
Sun 10:57:47 AM 31.7606 -94.1628 218° Southwest 459 528 34,000  Level Houston Center
Sun 10:58:49 AM 31.6619 -94.2556 219° Southwest 455 524 34,000  Level Houston Center
Sun 10:59:51 AM 31.5625 -94.3494 219° Southwest 458 527 34,000  Level Houston Center
Sun 11:00:53 AM 31.4608 -94.4433 218° Southwest 462 532 34,000  Level Houston Center
Sun 11:01:55 AM 31.3592 -94.5358 218° Southwest 463 533 34,000  Level Houston Center
Sun 11:02:57 AM 31.2564 -94.6286 218° Southwest 461 531 34,000  Level Houston Center
Sun 11:03:59 AM 31.1483 -94.7303 219° Southwest 470 541 34,000  Level Houston Center
Sun 11:05:00 AM 31.0514 -94.8342 223° Southwest 465 535 34,000  Level Houston Center
Sun 11:06:02 AM 30.9578 -94.9358 223° Southwest 459 528 34,000  Level Houston Center
Sun 11:07:04 AM 30.8631 -95.0367 222° Southwest 460 529 34,000  Level Houston Center
Sun 11:08:06 AM 30.7481 -95.1592 222° Southwest 465 535 34,000  Level Houston Center
Sun 11:09:07 AM 30.6544 -95.2606 223° Southwest 461 531 34,000  Level Houston Center
Sun 11:10:09 AM 30.5597 -95.3633 223° Southwest 464 534 34,000  Level Houston Center
Sun 11:11:11 AM 30.4614 -95.4672 222° Southwest 460 529 34,000  Level Houston Center
Sun 11:12:13 AM 30.3678 -95.5703 224° Southwest 465 535 34,000  Level Houston Center
Sun 11:13:15 AM 30.2722 -95.6683 222° Southwest 462 532 34,000  Level Houston Center
Sun 11:14:17 AM 30.1781 -95.7681 222° Southwest 460 529 34,000  Level Houston Center
Sun 11:15:19 AM 30.0994 -95.8822 232° Southwest 469 540 34,000  Level Houston Center
Sun 11:16:20 AM 30.0697 -96.0331 257° West 456 525 34,000 -98 Level Houston Center
Sun 11:17:22 AM 30.0583 -96.1758 265° West 451 519 33,800 -1,065 Descending Houston Center
Sun 11:18:24 AM 30.0453 -96.3242 264° West 465 535 31,800 -2,129 Descending Houston Center
Sun 11:19:26 AM 30.0289 -96.5078 264° West 480 552 29,400 -2,129 Descending Houston Center
Sun 11:20:28 AM 30.0147 -96.6586 264° West 476 548 27,400 -1,887 Descending Houston Center
Sun 11:21:30 AM 30.0036 -96.8028 265° West 460 529 25,500 -1,790 Descending Houston Center
Sun 11:22:32 AM 29.9883 -96.9461 263° West 454 522 23,700 -1,742 Descending Houston Center
Sun 11:23:34 AM 29.9731 -97.0883 263° West 452 520 21,900 -1,887 Descending Houston Center
Sun 11:24:36 AM 29.9567 -97.2536 264° West 436 502 19,800 -1,935 Descending Houston Center
Sun 11:25:38 AM 29.9442 -97.3867 264° West 425 489 17,900 -1,756 Descending Houston Center
Sun 11:26:39 AM 29.9328 -97.5197 264° West 418 481 16,200 -1,794 Descending Houston Center
Sun 11:27:15 AM 29.9258 -97.6000 264° West 412 474 15,000 -1,856 Descending Houston Center
Sun 11:28:16 AM 29.9139 -97.7344 264° West 389 448 13,200 -1,034 Descending Houston Center
Sun 11:29:11 AM 29.9011 -97.8419 262° West 397 457 13,000 -133 Descending Houston Center
Sun 11:29:46 AM 29.8756 -97.9161 248° West 401 461 13,000 -1,113 Level Houston Center
Sun 11:30:48 AM 29.8236 -98.0381 244° Southwest 393 452 11,200 -1,258 Descending Houston Center
Sun 11:31:50 AM 29.7822 -98.1367 244° Southwest 333 383 10,400 -1,113 Descending Houston Center
Sun 11:32:52 AM 29.7331 -98.2069 231° Southwest 280 322 8,900 -1,694 Descending Houston Center
Sun 11:33:54 AM 29.6872 -98.2842 236° Southwest 280 322 6,900 -1,452 Descending Houston Center
Sun 11:34:56 AM 29.6761 -98.3703 262° West 274 315 5,900 -1,210 Descending Houston Center
Sun 11:35:58 AM 29.6756 -98.4619 270° West 270 311 4,400 -1,210 Descending Houston Center
Sun 11:37:00 AM 29.6711 -98.5333 266° West 228 262 3,400 -968 Descending Houston Center

Login

Don't have an account? Register now (free) for customized features, flight alerts, and more!